createdAt,value
2018-09-10T00:02:17.313Z,16.50
2018-09-10T00:07:20.379Z,16.40
2018-09-10T00:12:23.464Z,16.40
2018-09-10T00:17:26.520Z,16.30
2018-09-10T00:22:29.589Z,16.20
2018-09-10T00:27:32.652Z,16.20
2018-09-10T00:32:35.712Z,16.10
2018-09-10T00:37:38.772Z,16.00
2018-09-10T00:42:41.837Z,16.00
2018-09-10T00:47:44.917Z,15.90
2018-09-10T00:52:47.975Z,15.80
2018-09-10T00:57:51.064Z,15.70
2018-09-10T01:02:54.125Z,15.70
2018-09-10T01:07:57.196Z,15.60
2018-09-10T01:29:24.501Z,15.40
2018-09-10T01:34:33.096Z,15.40
2018-09-10T01:39:36.156Z,15.30
2018-09-10T01:44:39.224Z,15.20
2018-09-10T01:49:42.268Z,15.20
2018-09-10T01:54:45.308Z,15.10
2018-09-10T01:59:48.363Z,15.10
2018-09-10T02:04:51.429Z,15.10
2018-09-10T02:09:54.472Z,15.00
2018-09-10T02:14:57.519Z,15.00
2018-09-10T02:20:00.573Z,14.90
2018-09-10T02:25:03.644Z,14.90
2018-09-10T02:30:07.070Z,14.90
2018-09-10T02:35:10.133Z,14.90
2018-09-10T02:40:13.180Z,14.90
2018-09-10T02:45:16.242Z,14.90
2018-09-10T02:50:19.394Z,14.90
2018-09-10T02:55:22.439Z,14.80
2018-09-10T03:00:25.908Z,14.80
2018-09-10T03:05:28.976Z,14.70
2018-09-10T03:10:32.027Z,14.70
2018-09-10T03:15:35.096Z,14.70
2018-09-10T03:20:38.144Z,14.70
2018-09-10T03:25:41.224Z,14.60
2018-09-10T03:30:44.294Z,14.60
2018-09-10T03:35:47.369Z,14.50
2018-09-10T03:40:50.421Z,14.50
2018-09-10T03:45:53.470Z,14.40
2018-09-10T03:50:56.526Z,14.40
2018-09-10T03:55:59.605Z,14.40
2018-09-10T04:01:02.685Z,14.40
2018-09-10T04:06:05.866Z,14.40
2018-09-10T04:11:09.024Z,14.40
2018-09-10T04:16:12.097Z,14.40
2018-09-10T04:21:15.197Z,14.40
2018-09-10T04:26:18.257Z,14.40
2018-09-10T04:31:21.329Z,14.30
2018-09-10T04:36:24.406Z,14.40
2018-09-10T04:41:32.810Z,14.30
2018-09-10T04:46:36.488Z,14.30
2018-09-10T04:51:39.544Z,14.30
2018-09-10T05:13:06.296Z,14.30
2018-09-10T05:18:09.368Z,14.30
2018-09-10T05:23:12.467Z,14.30
2018-09-10T05:28:15.603Z,14.20
2018-09-10T05:33:18.651Z,14.30
2018-09-10T05:38:21.743Z,14.30
2018-09-10T05:43:24.816Z,14.30
2018-09-10T05:48:27.917Z,14.30
2018-09-10T05:53:30.981Z,14.40
2018-09-10T05:58:34.059Z,14.40
2018-09-10T06:03:37.135Z,14.40
2018-09-10T06:08:40.265Z,14.40
2018-09-10T06:13:43.328Z,14.40
2018-09-10T06:18:46.421Z,14.50
2018-09-10T06:23:49.514Z,14.50
2018-09-10T06:28:52.650Z,14.60
2018-09-10T06:34:02.311Z,14.70
2018-09-10T06:39:08.213Z,14.70
2018-09-10T06:44:11.294Z,14.80
2018-09-10T06:49:14.371Z,15.00
2018-09-10T06:54:17.464Z,15.10
2018-09-10T06:59:20.528Z,15.30
2018-09-10T07:04:23.599Z,15.50
2018-09-10T07:25:51.149Z,16.20
2018-09-10T07:30:54.225Z,16.40
2018-09-10T07:35:57.297Z,16.60
2018-09-10T07:41:00.381Z,16.80
2018-09-10T07:46:03.452Z,17.00
2018-09-10T07:51:06.508Z,17.20
2018-09-10T08:12:34.101Z,18.20
2018-09-10T08:17:37.164Z,18.50
2018-09-10T08:22:40.224Z,18.70
2018-09-10T08:27:43.271Z,19.00
2018-09-10T08:32:46.336Z,19.30
2018-09-10T08:37:49.396Z,19.50
2018-09-10T08:42:52.464Z,19.90
2018-09-10T08:47:55.519Z,20.20
2018-09-10T08:52:58.584Z,20.60
2018-09-10T08:58:01.652Z,20.80
2018-09-10T09:03:04.989Z,21.10
2018-09-10T09:08:08.102Z,21.30
2018-09-10T09:13:11.136Z,21.50
2018-09-10T09:18:14.182Z,21.80
2018-09-10T09:23:17.432Z,22.00
2018-09-10T09:28:20.610Z,22.10
2018-09-10T09:33:23.678Z,22.20
2018-09-10T09:38:32.112Z,22.20
2018-09-10T09:43:40.617Z,22.30
2018-09-10T09:48:43.680Z,22.30
2018-09-10T09:53:46.731Z,22.40
2018-09-10T09:58:50.200Z,22.50
2018-09-10T10:03:55.045Z,22.60
2018-09-10T10:08:58.107Z,22.80
2018-09-10T10:14:07.560Z,22.90
2018-09-10T10:19:10.603Z,23.10
2018-09-10T10:24:13.672Z,23.30
2018-09-10T10:29:16.733Z,23.60
2018-09-10T10:34:19.800Z,23.70
2018-09-10T10:55:48.093Z,23.90
2018-09-10T11:00:51.181Z,23.90
2018-09-10T11:05:54.246Z,24.00
2018-09-10T11:10:57.332Z,24.00
2018-09-10T11:16:00.410Z,24.10
2018-09-10T11:21:03.507Z,24.20
2018-09-10T11:26:06.614Z,24.30
2018-09-10T11:31:09.681Z,24.50
2018-09-10T11:36:12.752Z,24.60
2018-09-10T11:41:15.818Z,24.70
2018-09-10T11:46:18.885Z,25.00
2018-09-10T11:51:22.030Z,25.20
2018-09-10T11:56:25.105Z,25.30
2018-09-10T12:17:53.424Z,25.90
2018-09-10T12:39:21.747Z,26.00
2018-09-10T12:44:24.762Z,26.00
2018-09-10T13:05:51.750Z,25.70
2018-09-10T13:10:54.832Z,25.60
2018-09-10T13:15:57.886Z,25.50
2018-09-10T13:21:00.952Z,25.50
2018-09-10T13:26:04.019Z,25.40
2018-09-10T13:31:07.108Z,25.40
2018-09-10T13:36:10.196Z,25.40
2018-09-10T13:57:37.873Z,25.30
2018-09-10T14:19:05.763Z,25.30
2018-09-10T14:40:33.239Z,25.30
2018-09-10T14:45:36.316Z,25.30
2018-09-10T14:50:39.383Z,25.30
2018-09-10T14:55:42.462Z,25.30
2018-09-10T15:00:45.531Z,25.20
2018-09-10T15:05:48.608Z,25.20
2018-09-10T15:10:51.665Z,25.10
2018-09-10T15:32:19.054Z,24.80
2018-09-10T15:37:22.138Z,24.70
2018-09-10T15:42:25.194Z,24.60
2018-09-10T16:03:53.286Z,24.30
2018-09-10T16:08:56.401Z,24.30
2018-09-10T16:13:59.473Z,24.20
2018-09-10T16:35:27.139Z,23.90
2018-09-10T16:56:55.467Z,23.60
2018-09-10T17:18:22.959Z,23.20
2018-09-10T17:23:26.024Z,23.10
2018-09-10T17:28:29.096Z,23.10
2018-09-10T17:33:32.178Z,23.00
2018-09-10T17:55:00.659Z,22.70
2018-09-10T18:00:03.763Z,22.60
2018-09-10T18:05:07.076Z,22.60
2018-09-10T18:10:10.152Z,22.50
2018-09-10T18:15:13.208Z,22.40
2018-09-10T18:20:16.264Z,22.40
2018-09-10T18:25:19.329Z,22.30
2018-09-10T18:30:22.401Z,22.30
2018-09-10T18:35:25.457Z,22.20
2018-09-10T18:40:28.514Z,22.20
2018-09-10T19:01:56.180Z,21.90
2018-09-10T19:06:59.232Z,21.80
2018-09-10T19:12:02.317Z,21.70
2018-09-10T19:33:30.185Z,21.50
2018-09-10T19:54:57.717Z,21.20
2018-09-10T20:00:00.785Z,21.10
2018-09-10T20:21:28.868Z,20.80
2018-09-10T20:26:31.953Z,20.70
2018-09-10T20:31:35.004Z,20.70
2018-09-10T20:36:38.801Z,20.60
2018-09-10T20:41:41.864Z,20.50
2018-09-10T20:46:44.921Z,20.50
2018-09-10T20:51:47.988Z,20.50
2018-09-10T20:56:51.074Z,20.40
2018-09-10T21:01:54.132Z,20.40
2018-09-10T21:06:57.212Z,20.30
2018-09-10T21:12:00.282Z,20.20
2018-09-10T21:17:03.337Z,20.10
2018-09-10T21:22:06.471Z,20.10
2018-09-10T21:27:09.511Z,20.00
2018-09-10T21:32:12.560Z,19.90
2018-09-10T21:37:15.621Z,19.80
2018-09-10T21:42:18.677Z,19.80
2018-09-10T21:47:21.738Z,19.70
2018-09-10T21:52:24.835Z,19.60
2018-09-10T21:57:27.892Z,19.60
2018-09-10T22:02:30.968Z,19.50
2018-09-10T22:07:34.020Z,19.50
2018-09-10T22:12:37.084Z,19.40
2018-09-10T22:17:40.138Z,19.40
2018-09-10T22:22:43.196Z,19.30
2018-09-10T22:27:46.246Z,19.30
2018-09-10T22:49:13.457Z,19.10
2018-09-10T22:54:16.523Z,19.00
2018-09-10T22:59:19.577Z,19.00
2018-09-10T23:04:22.634Z,19.00
2018-09-10T23:09:25.692Z,18.90
2018-09-10T23:14:28.767Z,18.90
2018-09-10T23:19:31.825Z,18.90
2018-09-10T23:24:34.884Z,18.80
2018-09-10T23:29:37.943Z,18.80
2018-09-10T23:34:41.010Z,18.80
2018-09-10T23:39:44.054Z,18.80
2018-09-10T23:44:47.116Z,18.70
2018-09-10T23:49:50.168Z,18.70
2018-09-10T23:54:53.234Z,18.70
2018-09-10T23:59:56.290Z,18.60
